createdAt,value
2023-07-10T00:00:20.996Z,96.536000
2023-07-10T00:05:23.622Z,96.697143
2023-07-10T00:10:25.614Z,98.216000
2023-07-10T00:15:28.082Z,95.972000
2023-07-10T00:20:30.791Z,94.280000
2023-07-10T00:25:33.101Z,94.436000
2023-07-10T00:30:35.202Z,94.736000
2023-07-10T00:35:17.376Z,93.728000
2023-07-10T00:40:19.720Z,94.004000
2023-07-10T00:45:22.284Z,94.704286
2023-07-10T00:50:24.130Z,95.072000
2023-07-10T00:55:26.314Z,95.804000
2023-07-10T01:00:28.887Z,96.392000
2023-07-10T01:05:31.324Z,95.660000
2023-07-10T01:10:33.567Z,94.304000
2023-07-10T01:15:15.898Z,93.836000
2023-07-10T01:20:17.756Z,93.584000
2023-07-10T01:25:19.746Z,93.092000
2023-07-10T01:30:21.485Z,93.080000
2023-07-10T01:35:23.367Z,93.122857
2023-07-10T01:40:25.387Z,92.972000
2023-07-10T01:45:27.610Z,93.104000
2023-07-10T01:50:29.634Z,92.540000
2023-07-10T01:55:31.825Z,93.092000
2023-07-10T02:00:34.129Z,92.900000
2023-07-10T02:05:15.888Z,92.312000
2023-07-10T02:10:19.399Z,91.652000
2023-07-10T02:15:20.506Z,91.712000
2023-07-10T02:20:22.689Z,91.477143
2023-07-10T02:25:24.987Z,91.016000
2023-07-10T02:30:27.080Z,90.056000
2023-07-10T02:35:28.796Z,89.300000
2023-07-10T02:40:31.410Z,88.544000
2023-07-10T02:45:33.631Z,88.148000
2023-07-10T02:50:35.944Z,87.644000
2023-07-10T02:55:17.938Z,87.104000
2023-07-10T03:00:20.126Z,86.072000
2023-07-10T03:05:22.485Z,85.087143
2023-07-10T03:10:24.921Z,84.884000
2023-07-10T03:15:26.890Z,84.836000
2023-07-10T03:20:28.891Z,83.528000
2023-07-10T03:25:30.855Z,82.256000
2023-07-10T03:30:32.766Z,81.920000
2023-07-10T03:35:35.271Z,81.572000
2023-07-10T03:40:16.841Z,80.588000
2023-07-10T03:45:19.007Z,80.276000
2023-07-10T03:50:21.068Z,80.660000
2023-07-10T03:55:23.368Z,81.551429
2023-07-10T04:00:25.674Z,82.376000
2023-07-10T04:05:28.181Z,82.976000
2023-07-10T04:10:30.561Z,82.760000
2023-07-10T04:15:32.803Z,81.704000
2023-07-10T04:20:35.450Z,81.068000
2023-07-10T04:25:17.360Z,80.996000
2023-07-10T04:30:19.949Z,81.128000
2023-07-10T04:35:22.286Z,80.960000
2023-07-10T04:40:24.589Z,80.732000
2023-07-10T04:45:27.091Z,80.564000
2023-07-10T04:50:29.565Z,81.284000
2023-07-10T04:55:31.759Z,82.208000
2023-07-10T05:00:34.462Z,84.080000
2023-07-10T05:05:16.721Z,84.836000
2023-07-10T05:10:19.478Z,87.008000
2023-07-10T05:15:21.759Z,90.560000
2023-07-10T05:20:23.900Z,90.718571
2023-07-10T05:25:26.173Z,88.916000
2023-07-10T05:30:28.825Z,87.512000
2023-07-10T05:35:31.558Z,87.968000
2023-07-10T05:40:33.860Z,88.700000
2023-07-10T05:45:15.779Z,86.864000
2023-07-10T05:50:18.157Z,86.240000
2023-07-10T05:55:20.488Z,86.576000
2023-07-10T06:00:22.858Z,86.681429
2023-07-10T06:05:25.691Z,86.408000
2023-07-10T06:10:27.878Z,85.628000
2023-07-10T06:15:30.450Z,84.296000
2023-07-10T06:20:33.197Z,83.444000
2023-07-10T06:25:35.799Z,82.832000
2023-07-10T06:30:17.861Z,82.160000
2023-07-10T06:35:20.835Z,81.116000
2023-07-10T06:40:23.242Z,80.497143
2023-07-10T06:45:25.831Z,80.120000
2023-07-10T06:50:28.402Z,79.772000
2023-07-10T06:55:30.885Z,79.496000
2023-07-10T07:00:33.199Z,78.824000
2023-07-10T07:05:35.556Z,78.140000
2023-07-10T07:10:17.949Z,78.212000
2023-07-10T07:15:21.289Z,77.948000
2023-07-10T07:20:23.450Z,78.067143
2023-07-10T07:25:26.010Z,78.176000
2023-07-10T07:30:28.017Z,78.128000
2023-07-10T07:35:30.274Z,77.504000
2023-07-10T07:40:32.661Z,78.212000
2023-07-10T07:45:35.049Z,78.596000
2023-07-10T07:50:17.275Z,78.764000
2023-07-10T07:55:19.580Z,78.476000
2023-07-10T08:00:22.768Z,78.332000
2023-07-10T08:05:35.431Z,78.761429
2023-07-10T08:10:26.821Z,78.284000
2023-07-10T08:15:28.898Z,77.300000
2023-07-10T08:20:31.733Z,77.336000
2023-07-10T08:25:34.038Z,78.056000
2023-07-10T08:30:16.282Z,78.368000
2023-07-10T08:35:18.514Z,77.480000
2023-07-10T08:40:20.701Z,76.976000
2023-07-10T08:45:23.085Z,76.910000
2023-07-10T08:50:25.373Z,76.820000
2023-07-10T08:55:28.142Z,76.820000
2023-07-10T09:00:30.578Z,76.868000
2023-07-10T09:05:32.764Z,76.928000
2023-07-10T09:10:35.193Z,76.724000
2023-07-10T09:15:17.426Z,77.168000
2023-07-10T09:20:19.925Z,77.492000
2023-07-10T09:25:23.004Z,77.720000
2023-07-10T09:30:25.532Z,77.684000
2023-07-10T09:35:28.100Z,77.192000
2023-07-10T09:40:30.822Z,76.904000
2023-07-10T09:45:33.342Z,76.772000
2023-07-10T09:50:35.474Z,76.100000
2023-07-10T09:55:17.669Z,75.284000
2023-07-10T10:00:19.926Z,74.480000
2023-07-10T10:05:22.068Z,74.300000
2023-07-10T10:10:24.262Z,73.892000
2023-07-10T10:15:26.826Z,73.616000
2023-07-10T10:20:28.899Z,73.880000
2023-07-10T10:25:31.328Z,74.276000
2023-07-10T10:30:33.732Z,73.808000
2023-07-10T10:35:16.071Z,73.484000
2023-07-10T10:40:18.859Z,73.148000
2023-07-10T10:45:21.369Z,73.064000
2023-07-10T10:50:23.650Z,72.641429
2023-07-10T10:55:26.289Z,72.212000
2023-07-10T11:00:28.365Z,71.600000
2023-07-10T11:05:30.804Z,71.240000
2023-07-10T11:10:33.299Z,71.264000
2023-07-10T11:15:35.752Z,71.732000
2023-07-10T11:20:18.112Z,72.044000
2023-07-10T11:25:20.263Z,71.948000
2023-07-10T11:30:22.884Z,71.702857
2023-07-10T11:35:25.111Z,71.996000
2023-07-10T11:40:27.385Z,72.140000
2023-07-10T11:45:29.882Z,71.984000
2023-07-10T11:50:32.294Z,71.936000
2023-07-10T11:55:34.855Z,71.960000
2023-07-10T12:00:16.872Z,71.744000
2023-07-10T12:05:19.628Z,71.624000
2023-07-10T12:10:22.906Z,71.960000
2023-07-10T12:15:25.329Z,72.044000
2023-07-10T12:20:28.357Z,71.624000
2023-07-10T12:25:31.341Z,71.636000
2023-07-10T12:30:34.375Z,72.080000
2023-07-10T12:35:16.642Z,71.780000
2023-07-10T12:40:19.329Z,71.468000
2023-07-10T12:45:22.269Z,71.684000
2023-07-10T12:50:24.367Z,72.770000
2023-07-10T12:55:27.092Z,74.780000
2023-07-10T13:00:29.263Z,75.212000
2023-07-10T13:05:31.753Z,74.912000
2023-07-10T13:10:34.122Z,74.636000
2023-07-10T13:15:16.272Z,74.528000
2023-07-10T13:20:18.734Z,74.960000
2023-07-10T13:25:21.206Z,75.524000
2023-07-10T13:30:23.628Z,76.254286
2023-07-10T13:35:26.108Z,77.096000
2023-07-10T13:40:28.615Z,77.612000
2023-07-10T13:45:30.841Z,77.876000
2023-07-10T13:50:33.289Z,77.972000
2023-07-10T13:55:35.963Z,78.188000
2023-07-10T14:00:18.198Z,77.900000
2023-07-10T14:05:20.716Z,78.020000
2023-07-10T14:10:23.188Z,78.530000
2023-07-10T14:15:25.692Z,79.376000
2023-07-10T14:20:27.954Z,79.688000
2023-07-10T14:25:30.449Z,80.312000
2023-07-10T14:30:32.933Z,80.960000
2023-07-10T14:35:35.624Z,81.488000
2023-07-10T14:40:17.981Z,81.944000
2023-07-10T14:45:20.386Z,82.448000
2023-07-10T14:50:22.629Z,82.657143
2023-07-10T14:55:24.744Z,82.868000
2023-07-10T15:00:27.100Z,83.180000
2023-07-10T15:05:29.762Z,83.348000
2023-07-10T15:10:31.686Z,83.504000
2023-07-10T15:15:33.564Z,83.660000
2023-07-10T15:20:35.847Z,83.792000
2023-07-10T15:25:18.059Z,84.008000
2023-07-10T15:30:20.567Z,84.068000
2023-07-10T15:35:23.091Z,84.122857
2023-07-10T15:40:25.611Z,84.284000
2023-07-10T15:45:28.016Z,84.512000
2023-07-10T15:50:30.549Z,84.668000
2023-07-10T15:55:33.077Z,85.160000
2023-07-10T16:00:35.742Z,85.412000
2023-07-10T16:05:18.312Z,85.604000
2023-07-10T16:10:20.452Z,85.532000
2023-07-10T16:15:22.656Z,85.974286
2023-07-10T16:20:25.221Z,86.396000
2023-07-10T16:25:27.533Z,86.408000
2023-07-10T16:30:30.510Z,86.360000
2023-07-10T16:35:32.962Z,86.324000
2023-07-10T16:40:35.493Z,86.420000
2023-07-10T16:45:17.702Z,86.804000
2023-07-10T16:50:19.935Z,87.440000
2023-07-10T16:55:22.305Z,87.684286
2023-07-10T17:00:24.460Z,88.124000
2023-07-10T17:05:26.874Z,87.776000
2023-07-10T17:10:29.136Z,88.052000
2023-07-10T17:15:31.855Z,88.004000
2023-07-10T17:20:34.332Z,88.304000
2023-07-10T17:25:16.645Z,88.376000
2023-07-10T17:30:19.049Z,88.820000
2023-07-10T17:35:21.363Z,89.108000
2023-07-10T17:40:23.904Z,89.137143
2023-07-10T17:45:26.215Z,89.372000
2023-07-10T17:50:28.687Z,89.744000
2023-07-10T17:55:30.997Z,89.864000
2023-07-10T18:00:33.374Z,89.936000
2023-07-10T18:05:35.489Z,90.488000
2023-07-10T18:10:17.672Z,90.308000
2023-07-10T18:15:20.478Z,90.920000
2023-07-10T18:20:22.578Z,91.400000
2023-07-10T18:25:25.352Z,90.668000
2023-07-10T18:30:28.055Z,90.488000
2023-07-10T18:35:30.397Z,91.052000
2023-07-10T18:40:32.997Z,90.308000
2023-07-10T18:45:35.385Z,90.560000
2023-07-10T18:50:17.652Z,91.016000
2023-07-10T18:55:19.756Z,91.700000
2023-07-10T19:00:21.979Z,90.716000
2023-07-10T19:05:24.068Z,90.615714
2023-07-10T19:10:26.701Z,89.564000
2023-07-10T19:15:29.096Z,90.188000
2023-07-10T19:20:31.490Z,91.016000
2023-07-10T19:25:33.667Z,91.160000
2023-07-10T19:30:35.853Z,90.704000
2023-07-10T19:35:18.280Z,90.500000
2023-07-10T19:40:20.716Z,91.208000
2023-07-10T19:45:23.175Z,90.628571
2023-07-10T19:50:25.474Z,90.836000
2023-07-10T19:55:27.566Z,91.616000
2023-07-10T20:00:30.196Z,91.736000
2023-07-10T20:05:32.143Z,90.284000
2023-07-10T20:10:34.321Z,90.296000
2023-07-10T20:15:16.286Z,90.752000
2023-07-10T20:20:18.616Z,90.344000
2023-07-10T20:25:20.764Z,90.836000
2023-07-10T20:30:23.266Z,91.695714
2023-07-10T20:35:25.808Z,92.192000
2023-07-10T20:40:27.960Z,91.748000
2023-07-10T20:45:30.239Z,91.412000
2023-07-10T20:50:32.645Z,90.644000
2023-07-10T20:55:35.233Z,91.088000
2023-07-10T21:00:17.473Z,91.028000
2023-07-10T21:05:19.633Z,91.472000
2023-07-10T21:10:22.048Z,91.387143
2023-07-10T21:15:24.515Z,91.508000
2023-07-10T21:20:27.244Z,91.124000
2023-07-10T21:25:29.487Z,91.340000
2023-07-10T21:30:32.231Z,91.388000
2023-07-10T21:35:34.506Z,90.884000
2023-07-10T21:40:17.168Z,91.112000
2023-07-10T21:45:19.461Z,91.700000
2023-07-10T21:50:22.073Z,91.528571
2023-07-10T21:55:24.603Z,91.760000
2023-07-10T22:00:27.211Z,91.868000
2023-07-10T22:05:29.457Z,91.580000
2023-07-10T22:10:32.379Z,91.628000
2023-07-10T22:15:35.266Z,91.556000
2023-07-10T22:20:17.118Z,91.412000
2023-07-10T22:25:19.503Z,91.832000
2023-07-10T22:30:22.130Z,91.927143
2023-07-10T22:35:24.783Z,92.828000
2023-07-10T22:40:27.085Z,93.752000
2023-07-10T22:45:29.565Z,94.160000
2023-07-10T22:50:31.837Z,93.512000
2023-07-10T22:55:34.503Z,93.320000
2023-07-10T23:00:16.677Z,94.112000
2023-07-10T23:05:19.248Z,93.668000
2023-07-10T23:10:21.807Z,92.588000
2023-07-10T23:15:24.280Z,93.032857
2023-07-10T23:20:26.646Z,93.068000
2023-07-10T23:25:29.240Z,93.128000
2023-07-10T23:30:31.623Z,93.212000
2023-07-10T23:35:33.946Z,92.768000
2023-07-10T23:40:16.042Z,92.888000
2023-07-10T23:45:18.957Z,92.156000
2023-07-10T23:50:21.159Z,92.648000
2023-07-10T23:55:23.481Z,93.495714
